Time;durP1;ratioP1;P1;durP2;ratioP2;P2;SDS_P1;SDS_P2;PMS_P1;PMS_P2;Temp;Humidity;BMP_temperature;BMP_pressure;BME280_temperature;BME280_humidity;BME280_pressure;Samples;Min_cycle;Max_cycle;Signal;HPM_P1;HPM_P2
2022/06/06 00:01:44;;;;;;;3.27;2.23;;;16.60;99.90;;;;;;5035154;28;20256;-65
2022/06/06 00:04:12;;;;;;;3.05;2.08;;;16.60;99.90;;;;;;5035161;28;20214;-65
2022/06/06 00:06:40;;;;;;;6.50;2.30;;;16.60;99.90;;;;;;5035224;28;20210;-65
2022/06/06 00:09:07;;;;;;;3.13;2.20;;;16.50;99.90;;;;;;5035933;28;20230;-65
2022/06/06 00:11:34;;;;;;;2.20;2.00;;;16.60;99.90;;;;;;5038714;28;20237;-65
2022/06/06 00:14:01;;;;;;;4.43;2.20;;;16.50;99.90;;;;;;5041400;28;20202;-65
2022/06/06 00:16:28;;;;;;;2.00;1.80;;;16.50;99.90;;;;;;5039983;28;20214;-64
2022/06/06 00:18:55;;;;;;;3.87;2.20;;;16.50;99.90;;;;;;5039493;28;20230;-64
2022/06/06 00:21:23;;;;;;;3.07;1.90;;;16.50;99.90;;;;;;5040392;28;20242;-64
2022/06/06 00:23:50;;;;;;;3.27;2.40;;;16.50;99.90;;;;;;5037332;28;20210;-63
2022/06/06 00:26:18;;;;;;;3.67;2.10;;;16.60;99.90;;;;;;5035933;28;20213;-63
2022/06/06 00:28:45;;;;;;;2.47;1.93;;;16.50;99.90;;;;;;5035213;28;20234;-63
2022/06/06 00:36:43;;;;;;;3.20;2.13;;;16.50;99.90;;;;;;5034616;28;20200;-64
2022/06/06 00:39:13;;;;;;;5.90;2.20;;;16.40;99.90;;;;;;5033423;28;20606;-62
2022/06/06 00:41:41;;;;;;;3.70;2.80;;;16.40;99.90;;;;;;5033948;28;20232;-63
2022/06/06 00:44:10;;;;;;;3.20;2.27;;;16.40;99.90;;;;;;5034617;28;20202;-62
2022/06/06 00:46:41;;;;;;;3.73;2.00;;;16.30;99.90;;;;;;5033639;28;20206;-62
2022/06/06 00:49:10;;;;;;;4.87;2.20;;;16.30;99.90;;;;;;5033076;28;20230;-62
2022/06/06 00:51:37;;;;;;;2.50;1.97;;;16.30;99.90;;;;;;5033192;28;20210;-62
2022/06/06 00:54:06;;;;;;;3.40;2.20;;;16.30;99.90;;;;;;5033408;28;20214;-63
2022/06/06 00:56:37;;;;;;;4.20;2.30;;;16.30;99.90;;;;;;5034271;28;20212;-63
2022/06/06 00:59:06;;;;;;;2.40;2.20;;;16.30;99.90;;;;;;5033358;28;20234;-63
2022/06/06 01:01:36;;;;;;;2.87;2.47;;;16.30;99.90;;;;;;5033459;28;20226;-63
2022/06/06 01:04:05;;;;;;;3.47;2.30;;;16.30;99.90;;;;;;5033904;28;20207;-62
2022/06/06 01:06:35;;;;;;;3.07;2.40;;;16.30;99.90;;;;;;5033883;28;20216;-62
2022/06/06 01:09:03;;;;;;;3.37;2.10;;;16.30;99.90;;;;;;5033411;28;20234;-63
2022/06/06 01:11:35;;;;;;;3.93;2.27;;;16.30;99.90;;;;;;5033478;28;20229;-63
2022/06/06 01:14:02;;;;;;;6.00;2.80;;;16.30;99.90;;;;;;5032623;28;20210;-64
2022/06/06 01:16:39;;;;;;;2.47;2.23;;;16.30;99.90;;;;;;5033761;28;20206;-63
2022/06/06 01:19:24;;;;;;;2.60;2.33;;;16.30;99.90;;;;;;5033193;28;20708;-63
2022/06/06 01:22:27;;;;;;;4.60;2.30;;;16.20;99.90;;;;;;5034253;28;20229;-62
2022/06/06 01:25:13;;;;;;;3.00;2.37;;;16.10;99.90;;;;;;5033460;28;20206;-63
2022/06/06 01:27:50;;;;;;;4.10;2.40;;;16.10;99.90;;;;;;5033234;28;20213;-63
2022/06/06 01:30:21;;;;;;;3.00;2.37;;;16.10;99.90;;;;;;5033684;28;20202;-64
2022/06/06 01:32:53;;;;;;;3.37;2.70;;;16.10;99.90;;;;;;5035630;28;20210;-63
2022/06/06 01:35:26;;;;;;;3.97;2.57;;;16.10;99.90;;;;;;5037203;28;20594;-63
2022/06/06 01:37:53;;;;;;;3.57;2.63;;;16.00;99.90;;;;;;5036844;28;20202;-64
2022/06/06 01:40:21;;;;;;;5.03;2.77;;;15.90;99.90;;;;;;5033674;28;20229;-63
2022/06/06 01:42:54;;;;;;;4.23;2.70;;;15.90;99.90;;;;;;5033301;28;20594;-63
2022/06/06 01:45:29;;;;;;;4.07;2.53;;;15.90;99.90;;;;;;5033112;28;20206;-63
2022/06/06 01:48:02;;;;;;;6.13;2.77;;;15.80;99.90;;;;;;5032506;28;20232;-63
2022/06/06 01:50:31;;;;;;;4.67;2.63;;;15.80;99.90;;;;;;5032606;28;20217;-63
2022/06/06 01:53:01;;;;;;;5.70;2.50;;;15.80;99.90;;;;;;5033240;28;20210;-63
2022/06/06 01:55:30;;;;;;;3.87;2.80;;;15.70;99.90;;;;;;5033438;28;20221;-63
2022/06/06 01:58:01;;;;;;;3.23;2.27;;;15.60;99.90;;;;;;5033731;28;20217;-62
2022/06/06 02:00:32;;;;;;;3.43;2.20;;;15.40;99.90;;;;;;5033795;28;20273;-63
2022/06/06 02:02:58;;;;;;;5.43;2.50;;;15.30;99.90;;;;;;5033235;28;20211;-62
2022/06/06 02:05:26;;;;;;;6.07;2.80;;;15.30;99.90;;;;;;5034679;28;20586;-62
2022/06/06 02:07:53;;;;;;;4.40;2.57;;;15.30;99.90;;;;;;5033661;28;20217;-63
2022/06/06 02:10:20;;;;;;;5.23;2.60;;;15.40;99.90;;;;;;5032987;28;20225;-63
2022/06/06 02:12:48;;;;;;;4.20;2.70;;;15.30;99.90;;;;;;5033001;28;20211;-63
2022/06/06 02:15:19;;;;;;;3.80;3.03;;;15.30;99.90;;;;;;5033466;28;20212;-63
2022/06/06 02:17:47;;;;;;;6.40;2.93;;;15.30;99.90;;;;;;5034639;28;20215;-62
2022/06/06 02:20:16;;;;;;;4.27;2.57;;;15.20;99.90;;;;;;5034838;28;20245;-62
2022/06/06 02:22:43;;;;;;;3.10;2.80;;;15.20;99.90;;;;;;5033911;28;20213;-62
2022/06/06 02:25:11;;;;;;;4.73;2.97;;;15.20;99.90;;;;;;5035106;28;20214;-63
2022/06/06 02:27:38;;;;;;;10.17;3.27;;;15.20;99.90;;;;;;5036482;28;20229;-62
2022/06/06 02:30:08;;;;;;;4.77;2.70;;;15.20;99.90;;;;;;5035725;28;20733;-63
2022/06/06 02:32:34;;;;;;;5.33;3.07;;;15.10;99.90;;;;;;5035940;28;20571;-63
2022/06/06 02:35:03;;;;;;;3.77;3.00;;;15.10;99.90;;;;;;5035722;28;20210;-62
2022/06/06 02:37:30;;;;;;;4.50;3.17;;;15.00;99.90;;;;;;5035157;28;20210;-62
2022/06/06 02:39:56;;;;;;;3.03;2.60;;;15.00;99.90;;;;;;5034892;28;20642;-62
2022/06/06 02:42:23;;;;;;;3.70;2.73;;;15.00;99.90;;;;;;5035730;28;20300;-62
2022/06/06 02:44:50;;;;;;;6.27;2.60;;;14.90;99.90;;;;;;5035605;28;20213;-62
2022/06/06 02:47:17;;;;;;;3.07;2.77;;;14.80;99.90;;;;;;5035805;28;20649;-63
2022/06/06 02:49:44;;;;;;;8.33;2.67;;;14.80;99.90;;;;;;5035444;28;20233;-62
2022/06/06 02:52:12;;;;;;;6.37;2.67;;;14.60;99.90;;;;;;5035792;28;20521;-62
2022/06/06 02:54:39;;;;;;;4.70;2.70;;;14.40;99.90;;;;;;5036229;28;20206;-63
2022/06/06 02:57:06;;;;;;;3.37;2.50;;;14.30;99.90;;;;;;5036910;28;20213;-63
2022/06/06 02:59:35;;;;;;;5.20;2.30;;;14.30;99.90;;;;;;5036713;28;20493;-63
2022/06/06 03:02:03;;;;;;;6.03;2.50;;;14.30;99.90;;;;;;5036946;28;20230;-63
2022/06/06 03:04:30;;;;;;;6.00;3.07;;;14.40;99.90;;;;;;5037315;28;20234;-64
2022/06/06 03:07:09;;;;;;;5.00;3.00;;;14.30;99.90;;;;;;5036470;28;20210;-63
2022/06/06 03:09:44;;;;;;;6.27;2.70;;;14.20;99.90;;;;;;5035723;28;20226;-63
2022/06/06 03:12:34;;;;;;;6.07;2.33;;;14.30;99.90;;;;;;5035887;28;20206;-63
2022/06/06 03:15:32;;;;;;;5.50;3.00;;;14.20;99.90;;;;;;5036116;28;20206;-61
2022/06/06 03:21:19;;;;;;;4.27;2.40;;;14.10;99.90;;;;;;5038140;28;20728;-63
2022/06/06 03:24:09;;;;;;;4.90;2.50;;;13.90;99.90;;;;;;5035588;28;20202;-63
2022/06/06 03:26:49;;;;;;;5.23;2.93;;;13.90;99.90;;;;;;5035397;28;20202;-62
2022/06/06 03:29:32;;;;;;;3.90;2.73;;;13.90;99.90;;;;;;5035001;28;20237;-63
2022/06/06 03:32:06;;;;;;;6.00;3.00;;;13.90;99.90;;;;;;5034956;28;20271;-62
2022/06/06 03:34:41;;;;;;;4.67;2.80;;;13.90;99.90;;;;;;5035067;28;20575;-63
2022/06/06 03:37:16;;;;;;;4.10;2.80;;;14.00;99.90;;;;;;5033587;28;20587;-63
2022/06/06 03:39:50;;;;;;;7.10;3.50;;;14.00;99.90;;;;;;5034733;28;20230;-63
2022/06/06 03:42:27;;;;;;;7.47;4.03;;;14.20;99.90;;;;;;5034270;28;20230;-63
2022/06/06 03:45:04;;;;;;;4.47;3.97;;;14.30;99.90;;;;;;5035185;28;20214;-62
2022/06/06 03:47:44;;;;;;;6.43;3.93;;;14.40;99.90;;;;;;5035739;28;20239;-63
2022/06/06 03:50:20;;;;;;;4.63;3.77;;;14.60;99.90;;;;;;5035267;28;20205;-64
2022/06/06 03:52:51;;;;;;;8.27;3.97;;;14.80;99.90;;;;;;5034848;28;20631;-63
2022/06/06 03:55:30;;;;;;;5.30;3.60;;;14.90;99.90;;;;;;5035577;28;20198;-63
2022/06/06 03:58:03;;;;;;;7.30;3.13;;;14.90;99.90;;;;;;5034538;28;20631;-64
2022/06/06 04:00:32;;;;;;;5.43;3.63;;;14.90;99.90;;;;;;5034199;28;20229;-62
2022/06/06 04:02:59;;;;;;;4.03;2.53;;;14.90;99.90;;;;;;5034174;28;20206;-63
2022/06/06 04:05:26;;;;;;;4.90;2.70;;;15.10;99.90;;;;;;5034308;28;20218;-62
2022/06/06 04:07:53;;;;;;;4.67;2.80;;;15.20;99.90;;;;;;5034516;28;20210;-62
2022/06/06 04:10:24;;;;;;;4.77;3.00;;;15.40;99.90;;;;;;5034112;28;20210;-62
2022/06/06 04:13:06;;;;;;;3.27;2.80;;;15.30;99.90;;;;;;5034940;28;20216;-62
2022/06/06 04:15:40;;;;;;;4.50;3.30;;;15.40;99.90;;;;;;5034208;28;20297;-62
2022/06/06 04:18:12;;;;;;;3.73;3.00;;;15.60;99.90;;;;;;5034006;28;20225;-61
2022/06/06 04:20:50;;;;;;;6.37;2.70;;;15.90;99.90;;;;;;5033727;28;20623;-62
2022/06/06 04:23:27;;;;;;;3.40;2.80;;;16.00;99.90;;;;;;5033732;28;20615;-63
2022/06/06 04:26:07;;;;;;;6.60;2.90;;;16.00;99.90;;;;;;5033857;28;20224;-62
2022/06/06 04:28:46;;;;;;;6.37;2.90;;;15.90;99.90;;;;;;5033589;28;20234;-63
2022/06/06 04:31:19;;;;;;;3.30;2.60;;;15.90;99.90;;;;;;5034079;28;20205;-62
2022/06/06 04:33:52;;;;;;;7.83;2.60;;;15.90;99.90;;;;;;5034031;28;20210;-63
2022/06/06 04:36:26;;;;;;;5.70;2.40;;;16.00;99.90;;;;;;5034314;28;20210;-62
2022/06/06 04:38:59;;;;;;;7.13;2.77;;;16.00;99.90;;;;;;5033616;28;20316;-61
2022/06/06 04:41:35;;;;;;;4.27;2.70;;;16.10;99.90;;;;;;5034510;28;20867;-64
2022/06/06 04:44:12;;;;;;;4.20;2.70;;;16.10;99.90;;;;;;5033903;28;20209;-63
2022/06/06 04:46:45;;;;;;;3.47;2.33;;;16.10;99.90;;;;;;5033835;28;20209;-63
2022/06/06 04:49:13;;;;;;;6.25;2.38;;;16.30;99.90;;;;;;5033455;28;20233;-63
2022/06/06 04:51:42;;;;;;;4.43;2.60;;;16.40;99.90;;;;;;5034248;28;20579;-63
2022/06/06 04:54:13;;;;;;;5.00;2.20;;;16.90;99.90;;;;;;5033546;28;20279;-63
2022/06/06 04:56:41;;;;;;;3.45;1.77;;;17.80;99.90;;;;;;5034516;28;20190;-64
2022/06/06 04:59:12;;;;;;;7.00;2.30;;;19.00;99.90;;;;;;5034654;28;20230;-63
2022/06/06 05:01:40;;;;;;;2.40;1.63;;;20.50;99.90;;;;;;5036493;28;20575;-63
2022/06/06 05:04:06;;;;;;;1.90;1.63;;;22.00;99.90;;;;;;5035947;28;20202;-64
2022/06/06 05:07:07;;;;;;;2.15;1.70;;;23.00;99.90;;;;;;5034084;28;20606;-63
2022/06/06 05:10:01;;;;;;;2.70;1.67;;;23.70;99.90;;;;;;5013321;28;20232;-63
2022/06/06 05:12:41;;;;;;;5.68;1.75;;;24.30;99.90;;;;;;5033655;28;20210;-64
2022/06/06 05:15:26;;;;;;;2.38;1.73;;;24.20;99.90;;;;;;5033826;28;20210;-64
2022/06/06 05:18:20;;;;;;;4.15;1.70;;;23.90;99.90;;;;;;5033787;28;20281;-64
2022/06/06 05:20:59;;;;;;;2.72;1.70;;;24.20;99.90;;;;;;5033564;28;20737;-63
2022/06/06 05:23:54;;;;;;;4.57;1.70;;;24.70;99.90;;;;;;5034410;28;20214;-63
2022/06/06 05:26:38;;;;;;;6.88;1.80;;;25.20;99.90;;;;;;5035073;28;20232;-63
2022/06/06 05:29:18;;;;;;;3.72;1.40;;;25.70;99.90;;;;;;5055895;23;20230;-65
2022/06/06 05:31:59;;;;;;;5.35;1.58;;;25.70;99.90;;;;;;5031755;28;20198;-66
2022/06/06 05:34:32;;;;;;;4.40;1.70;;;25.70;99.90;;;;;;5031915;28;20214;-65
2022/06/06 05:37:18;;;;;;;2.00;1.60;;;25.80;99.90;;;;;;5032133;28;20202;-64
2022/06/06 05:40:12;;;;;;;4.82;1.90;;;26.80;99.90;;;;;;5031548;28;20226;-68
2022/06/06 05:42:58;;;;;;;2.08;1.48;;;27.70;99.90;;;;;;5031615;28;20759;-65
2022/06/06 05:45:35;;;;;;;3.05;1.65;;;28.00;99.90;;;;;;5031555;28;20214;-64
2022/06/06 05:48:21;;;;;;;5.95;1.50;;;28.20;99.90;;;;;;5031660;28;20264;-65
2022/06/06 05:51:03;;;;;;;3.28;1.73;;;28.50;99.90;;;;;;5031519;28;20213;-64
2022/06/06 05:53:53;;;;;;;4.00;1.63;;;29.00;99.90;;;;;;5031630;28;20206;-64
2022/06/06 05:56:42;;;;;;;4.68;1.50;;;29.50;99.90;;;;;;5031779;28;20206;-66
2022/06/06 05:59:26;;;;;;;2.22;1.77;;;30.10;99.90;;;;;;5031319;28;20249;-65
2022/06/06 06:02:12;;;;;;;2.40;1.65;;;30.60;99.90;;;;;;5034706;28;20635;-65
2022/06/06 06:04:59;;;;;;;2.75;1.50;;;30.80;98.70;;;;;;5035676;28;20202;-65
2022/06/06 06:07:33;;;;;;;4.75;1.60;;;30.80;98.20;;;;;;5035427;28;20268;-65
2022/06/06 06:10:08;;;;;;;1.70;1.40;;;30.80;98.00;;;;;;5035123;28;20230;-65
2022/06/06 06:12:59;;;;;;;5.75;1.80;;;31.30;97.50;;;;;;5035478;28;20212;-66
2022/06/06 06:15:33;;;;;;;1.55;1.40;;;31.70;96.30;;;;;;5035190;28;20206;-65
2022/06/06 06:18:02;;;;;;;1.85;1.67;;;31.90;95.30;;;;;;5035177;28;20221;-64
2022/06/06 06:20:35;;;;;;;3.42;1.60;;;31.30;95.10;;;;;;5035084;28;20210;-66
2022/06/06 06:23:06;;;;;;;2.08;1.70;;;30.40;95.90;;;;;;5035665;28;20226;-65
2022/06/06 06:25:34;;;;;;;1.55;1.45;;;29.10;97.90;;;;;;5035560;28;20210;-64
2022/06/06 06:28:06;;;;;;;3.22;1.73;;;28.30;99.50;;;;;;5035582;28;20210;-64
2022/06/06 06:30:44;;;;;;;2.25;2.00;;;27.80;99.90;;;;;;5035190;28;20213;-65
2022/06/06 06:33:28;;;;;;;4.30;1.90;;;27.20;99.90;;;;;;5035471;28;20210;-65
2022/06/06 06:36:06;;;;;;;2.60;1.90;;;27.00;99.90;;;;;;5035602;28;20256;-65
2022/06/06 06:38:52;;;;;;;2.72;1.92;;;27.00;99.90;;;;;;5034899;28;20329;-65
2022/06/06 06:41:26;;;;;;;2.60;2.10;;;27.50;99.90;;;;;;5034802;28;20442;-65
2022/06/06 06:44:01;;;;;;;3.42;1.85;;;27.80;99.90;;;;;;5034975;28;20210;-65
2022/06/06 06:46:33;;;;;;;2.85;1.85;;;28.00;99.90;;;;;;5035031;28;20252;-65
2022/06/06 06:49:11;;;;;;;3.40;2.13;;;27.70;99.90;;;;;;5035004;28;20241;-65
2022/06/06 06:51:49;;;;;;;5.00;2.63;;;27.60;99.90;;;;;;5035252;28;20620;-65
2022/06/06 06:54:29;;;;;;;3.80;2.38;;;27.70;99.90;;;;;;5035335;28;20210;-65
2022/06/06 06:57:08;;;;;;;4.40;2.33;;;28.00;99.70;;;;;;5035155;28;20206;-66
2022/06/06 06:59:42;;;;;;;3.50;2.88;;;28.50;98.20;;;;;;5034863;28;20229;-65
2022/06/06 07:11:15;;;;;;;2.95;2.45;;;31.20;91.60;;;;;;5023905;28;20217;-65
2022/06/06 07:13:59;;;;;;;2.05;1.83;;;31.50;90.70;;;;;;5034644;28;20214;-64
2022/06/06 07:16:29;;;;;;;3.88;2.22;;;32.50;89.60;;;;;;5034408;28;20213;-66
2022/06/06 07:19:00;;;;;;;3.03;2.22;;;33.80;84.30;;;;;;5034260;28;20222;-66
2022/06/06 07:21:28;;;;;;;4.57;1.70;;;33.60;81.70;;;;;;5034008;28;20210;-66
2022/06/06 07:24:00;;;;;;;3.38;2.45;;;32.70;84.70;;;;;;5034351;28;20564;-65
2022/06/06 07:26:27;;;;;;;4.85;2.47;;;32.20;85.80;;;;;;5034440;28;20206;-65
2022/06/06 07:28:54;;;;;;;4.43;2.60;;;32.00;86.90;;;;;;5033754;28;20244;-65
2022/06/06 07:31:28;;;;;;;4.70;2.25;;;31.50;86.50;;;;;;5034534;28;20206;-65
2022/06/06 07:34:16;;;;;;;3.20;2.83;;;30.90;87.20;;;;;;5034255;28;20213;-65
2022/06/06 07:37:04;;;;;;;5.28;2.00;;;30.20;90.00;;;;;;5034495;28;20205;-66
2022/06/06 07:39:44;;;;;;;3.95;2.10;;;29.20;91.20;;;;;;5034202;28;20226;-66
2022/06/06 07:42:28;;;;;;;4.35;2.30;;;28.40;92.60;;;;;;5033789;28;20283;-66
2022/06/06 07:45:07;;;;;;;3.28;2.20;;;27.40;95.10;;;;;;5034349;28;20313;-66
2022/06/06 07:47:47;;;;;;;3.83;2.38;;;26.70;96.40;;;;;;5033970;28;20292;-65
2022/06/06 07:50:18;;;;;;;6.65;1.83;;;26.80;97.20;;;;;;5033779;28;20222;-65
2022/06/06 07:52:55;;;;;;;3.95;2.20;;;27.30;96.70;;;;;;5034171;28;20203;-66
2022/06/06 07:55:27;;;;;;;3.95;3.33;;;27.80;96.20;;;;;;5033909;28;20202;-65
2022/06/06 07:58:01;;;;;;;3.15;2.33;;;28.50;95.40;;;;;;5033649;28;20211;-66
2022/06/06 08:00:28;;;;;;;4.20;2.47;;;29.10;93.40;;;;;;5033710;28;20689;-65
2022/06/06 08:03:07;;;;;;;3.58;2.35;;;29.80;92.40;;;;;;5033747;28;20276;-66
2022/06/06 08:06:00;;;;;;;2.80;1.83;;;30.60;91.30;;;;;;5033937;28;20249;-67
2022/06/06 08:08:42;;;;;;;2.90;2.20;;;31.20;90.00;;;;;;5033573;28;20226;-65
2022/06/06 08:11:20;;;;;;;3.40;2.38;;;31.80;87.60;;;;;;5033729;28;20214;-65
2022/06/06 08:13:55;;;;;;;6.85;2.05;;;32.10;86.80;;;;;;5033694;28;20202;-65
2022/06/06 08:16:27;;;;;;;4.32;2.00;;;32.70;85.50;;;;;;5033356;28;20658;-64
2022/06/06 08:19:14;;;;;;;4.53;2.15;;;33.80;81.30;;;;;;5033116;28;20710;-66
2022/06/06 08:21:43;;;;;;;2.72;1.95;;;34.90;77.40;;;;;;5033954;28;20210;-65
2022/06/06 08:24:16;;;;;;;2.33;2.00;;;36.00;72.40;;;;;;5033248;28;20225;-65
2022/06/06 08:26:48;;;;;;;3.50;1.92;;;36.10;71.30;;;;;;5033841;28;20248;-66
2022/06/06 08:29:16;;;;;;;3.28;1.80;;;36.70;67.60;;;;;;5032740;28;20260;-65
2022/06/06 08:31:43;;;;;;;3.15;1.92;;;36.30;68.10;;;;;;5032492;28;20210;-66
2022/06/06 08:34:11;;;;;;;2.58;2.00;;;35.70;67.20;;;;;;5028363;28;20276;-67
2022/06/06 08:37:00;;;;;;;4.10;2.10;;;35.90;67.50;;;;;;5031512;28;20244;-66
2022/06/06 08:39:37;;;;;;;3.38;2.00;;;36.80;65.70;;;;;;5031872;28;20234;-67
2022/06/06 08:42:19;;;;;;;3.95;2.17;;;36.60;63.90;;;;;;5032257;28;20497;-66
2022/06/06 08:45:09;;;;;;;2.83;1.98;;;35.80;65.20;;;;;;5030885;28;20528;-65
2022/06/06 08:47:55;;;;;;;4.30;2.63;;;35.80;64.90;;;;;;5031810;28;20217;-65
2022/06/06 08:50:47;;;;;;;6.97;2.40;;;35.80;65.00;;;;;;5031164;28;20464;-65
2022/06/06 08:53:44;;;;;;;2.80;1.80;;;35.30;65.20;;;;;;5031545;28;20206;-64
2022/06/06 08:56:49;;;;;;;3.28;2.53;;;34.10;68.00;;;;;;5031260;28;20293;-64
2022/06/06 09:00:01;;;;;;;3.75;2.40;;;32.70;70.80;;;;;;4965726;28;20271;-65
2022/06/06 09:02:58;;;;;;;3.38;1.90;;;31.50;73.90;;;;;;5026381;28;20352;-64
2022/06/06 09:05:46;;;;;;;3.60;2.38;;;30.50;77.00;;;;;;5031351;28;20604;-65
2022/06/06 09:08:40;;;;;;;10.02;2.78;;;29.70;80.10;;;;;;5031429;28;20574;-68
2022/06/06 09:11:45;;;;;;;2.38;1.92;;;29.20;82.10;;;;;;5030927;28;20293;-67
2022/06/06 09:14:57;;;;;;;4.18;3.50;;;28.80;82.60;;;;;;5031945;28;20623;-68
2022/06/06 09:17:56;;;;;;;4.47;2.10;;;28.50;84.20;;;;;;4985922;28;20206;-66
2022/06/06 09:20:52;;;;;;;5.57;2.50;;;28.40;84.80;;;;;;5029469;28;20226;-67
2022/06/06 09:23:54;;;;;;;5.47;2.13;;;28.20;86.90;;;;;;4986440;28;20230;-62
2022/06/06 09:26:32;;;;;;;2.58;2.08;;;28.30;86.70;;;;;;5031085;28;20210;-64
2022/06/06 09:29:29;;;;;;;4.00;2.15;;;28.60;86.00;;;;;;5030929;28;20237;-67
2022/06/06 09:32:21;;;;;;;3.90;2.47;;;28.70;86.80;;;;;;5030938;28;20206;-67
2022/06/06 09:35:17;;;;;;;4.07;2.10;;;28.60;85.20;;;;;;5029815;28;20216;-63
2022/06/06 09:38:02;;;;;;;4.82;2.03;;;28.30;87.20;;;;;;5030214;28;20268;-65
2022/06/06 09:40:35;;;;;;;3.22;2.13;;;28.20;88.10;;;;;;5030491;28;20252;-65
2022/06/06 09:43:08;;;;;;;4.78;2.13;;;28.00;86.90;;;;;;5030452;28;20801;-66
2022/06/06 09:45:56;;;;;;;2.33;2.13;;;28.00;88.30;;;;;;5030722;28;20550;-64
2022/06/06 09:48:54;;;;;;;2.80;2.10;;;27.80;88.10;;;;;;5031646;28;20226;-64
2022/06/06 09:52:05;;;;;;;3.28;2.10;;;27.70;88.40;;;;;;5031561;28;20210;-64
2022/06/06 10:01:31;;;;;;;3.17;1.67;;;27.30;87.00;;;;;;5031422;28;20206;-64
2022/06/06 10:04:46;;;;;;;2.50;1.70;;;26.90;87.60;;;;;;5031588;28;20230;-64
2022/06/06 10:07:55;;;;;;;1.90;1.75;;;26.80;88.30;;;;;;4932073;29;20297;-64
2022/06/06 10:10:50;;;;;;;2.72;1.60;;;26.80;87.40;;;;;;5016138;28;20234;-64
2022/06/06 10:13:31;;;;;;;1.63;1.45;;;26.80;87.20;;;;;;5031703;28;20202;-64
2022/06/06 10:16:30;;;;;;;4.68;2.03;;;26.80;87.80;;;;;;5031718;28;20216;-64
2022/06/06 10:19:17;;;;;;;1.75;1.58;;;26.80;88.50;;;;;;5031735;28;20223;-64
2022/06/06 10:22:14;;;;;;;2.85;1.58;;;26.80;84.60;;;;;;5031935;28;20670;-64
2022/06/06 10:25:08;;;;;;;1.35;1.17;;;26.70;84.20;;;;;;5031831;28;20333;-64
2022/06/06 10:27:53;;;;;;;2.28;1.30;;;26.50;84.50;;;;;;5034780;28;20208;-64
2022/06/06 10:30:22;;;;;;;2.38;1.52;;;26.50;85.30;;;;;;5033098;28;20241;-65
2022/06/06 10:33:43;;;;;;;2.38;1.20;;;26.50;83.30;;;;;;5032990;28;20209;-64
2022/06/06 10:36:46;;;;;;;2.70;1.63;;;26.70;82.80;;;;;;5008288;28;20264;-64
2022/06/06 10:39:54;;;;;;;5.13;1.40;;;26.80;82.50;;;;;;5032123;28;20659;-64
2022/06/06 10:42:36;;;;;;;1.63;1.40;;;26.90;81.20;;;;;;5035895;28;20217;-64
2022/06/06 10:45:27;;;;;;;6.85;4.40;;;26.90;80.10;;;;;;5038663;28;20214;-64
2022/06/06 10:48:30;;;;;;;2.17;1.30;;;26.80;80.60;;;;;;5045263;28;20701;-64
2022/06/06 10:51:41;;;;;;;1.63;1.23;;;26.80;80.80;;;;;;5051774;28;20202;-64
2022/06/06 10:54:38;;;;;;;3.75;1.80;;;27.00;78.40;;;;;;5040577;28;20206;-64
2022/06/06 10:57:52;;;;;;;3.85;2.35;;;27.30;77.80;;;;;;5035089;28;20256;-64
2022/06/06 11:00:23;;;;;;;2.58;1.08;;;27.80;77.20;;;;;;5034592;28;20237;-64
2022/06/06 11:03:29;;;;;;;3.45;1.50;;;28.10;77.10;;;;;;5034559;28;20259;-64
2022/06/06 11:06:20;;;;;;;2.83;1.70;;;28.20;76.00;;;;;;5034403;28;20206;-64
2022/06/06 11:09:13;;;;;;;3.85;1.88;;;28.40;75.80;;;;;;5034217;28;20733;-64
2022/06/06 11:12:05;;;;;;;3.38;1.70;;;28.60;74.40;;;;;;5034587;28;20682;-63
2022/06/06 11:14:36;;;;;;;5.03;2.80;;;29.10;74.90;;;;;;5029732;28;20205;-67
2022/06/06 11:17:35;;;;;;;5.07;4.28;;;29.60;71.60;;;;;;5017118;28;20655;-69
2022/06/06 11:20:43;;;;;;;3.63;1.40;;;29.90;70.40;;;;;;4964020;28;20238;-67
2022/06/06 11:23:19;;;;;;;3.50;1.58;;;29.80;70.00;;;;;;5016508;28;20222;-66
2022/06/06 11:26:03;;;;;;;1.95;1.35;;;29.70;70.50;;;;;;5015408;28;20261;-66
2022/06/06 11:28:53;;;;;;;4.70;1.50;;;29.60;68.20;;;;;;5015777;28;20262;-66
2022/06/06 11:31:41;;;;;;;3.95;2.97;;;29.20;68.80;;;;;;5013266;28;20261;-65
2022/06/06 11:34:30;;;;;;;3.45;2.20;;;28.80;69.20;;;;;;5014353;28;20203;-66
2022/06/06 11:37:37;;;;;;;3.03;2.17;;;28.60;69.30;;;;;;5014040;28;20261;-66
2022/06/06 11:40:36;;;;;;;3.15;2.10;;;28.50;68.50;;;;;;5013277;28;20231;-66
2022/06/06 11:43:28;;;;;;;5.68;1.70;;;28.50;68.40;;;;;;5013092;28;20273;-66
2022/06/06 11:46:26;;;;;;;5.88;1.42;;;28.90;67.70;;;;;;5012781;28;20679;-65
2022/06/06 11:49:19;;;;;;;2.65;1.33;;;29.30;67.00;;;;;;5012479;28;20226;-66
2022/06/06 11:52:40;;;;;;;1.63;1.25;;;29.50;68.70;;;;;;5012899;28;20217;-68
2022/06/06 11:55:20;;;;;;;3.92;1.35;;;29.70;73.20;;;;;;4951769;29;20662;-66
2022/06/06 11:58:24;;;;;;;3.92;1.30;;;29.40;72.00;;;;;;4951580;28;20299;-68
2022/06/06 12:01:09;;;;;;;3.72;2.40;;;29.10;71.00;;;;;;5007462;28;20211;-68
2022/06/06 12:04:08;;;;;;;2.33;1.50;;;28.90;72.60;;;;;;5012696;28;20231;-67
2022/06/06 12:06:53;;;;;;;4.22;2.10;;;28.90;75.30;;;;;;5012696;28;20742;-65
2022/06/06 12:09:32;;;;;;;1.38;1.05;;;28.90;70.40;;;;;;5012542;28;20652;-68
2022/06/06 12:12:30;;;;;;;3.28;1.17;;;29.20;67.20;;;;;;5012572;28;20261;-67
2022/06/06 12:15:34;;;;;;;1.17;1.08;;;29.60;66.10;;;;;;5014130;28;20203;-66
2022/06/06 12:18:20;;;;;;;1.80;1.23;;;29.90;63.90;;;;;;5013069;28;20207;-67
2022/06/06 12:21:25;;;;;;;2.30;1.20;;;30.10;63.40;;;;;;5012773;28;20210;-65
2022/06/06 12:24:09;;;;;;;1.95;1.50;;;30.20;63.40;;;;;;4980739;28;20276;-66
2022/06/06 12:27:05;;;;;;;2.08;1.50;;;30.10;62.90;;;;;;5011724;28;20737;-65
2022/06/06 12:29:53;;;;;;;1.58;1.15;;;29.80;63.60;;;;;;5006450;28;20235;-65
2022/06/06 12:32:38;;;;;;;2.22;1.50;;;29.70;64.80;;;;;;5012255;28;20302;-65
2022/06/06 12:35:09;;;;;;;1.70;1.40;;;29.60;65.80;;;;;;5012377;28;20215;-68
2022/06/06 12:37:42;;;;;;;1.92;1.40;;;29.70;65.20;;;;;;5012600;28;20203;-67
2022/06/06 12:40:17;;;;;;;3.40;1.50;;;29.80;65.10;;;;;;5012322;28;20281;-66
2022/06/06 12:42:57;;;;;;;2.22;1.70;;;29.70;64.20;;;;;;5012356;28;20635;-66
2022/06/06 12:46:01;;;;;;;2.45;1.42;;;29.70;64.20;;;;;;5012820;28;20203;-66
2022/06/06 12:48:59;;;;;;;5.90;3.58;;;29.60;64.00;;;;;;4951558;29;20499;-67
2022/06/06 12:51:40;;;;;;;3.58;1.83;;;29.20;65.20;;;;;;5011502;28;20223;-68
2022/06/06 12:55:09;;;;;;;2.13;1.20;;;29.00;66.20;;;;;;5012049;28;20206;-67
2022/06/06 12:57:26;;;;;;;3.15;1.95;;;28.70;64.40;;;;;;5011921;28;20211;-67
2022/06/06 13:00:04;;;;;;;2.55;1.45;;;28.40;65.40;;;;;;5011561;28;20221;-67
2022/06/06 13:02:47;;;;;;;1.50;1.13;;;28.40;66.60;;;;;;5011371;28;20662;-66
2022/06/06 13:05:37;;;;;;;4.30;1.52;;;28.60;67.30;;;;;;5012098;28;20325;-64
2022/06/06 13:08:25;;;;;;;1.10;0.93;;;29.10;67.00;;;;;;5010892;28;20217;-65
2022/06/06 13:11:09;;;;;;;1.20;1.10;;;29.60;65.50;;;;;;5011509;28;20221;-67
2022/06/06 13:13:49;;;;;;;2.38;1.20;;;29.90;67.20;;;;;;5011724;28;20202;-65
2022/06/06 13:16:32;;;;;;;4.90;1.30;;;29.80;66.60;;;;;;5012159;28;20207;-65
2022/06/06 13:19:21;;;;;;;1.35;1.10;;;29.30;68.30;;;;;;5011535;28;20683;-64
2022/06/06 13:22:02;;;;;;;2.72;1.35;;;28.80;68.20;;;;;;5011874;28;20222;-67
2022/06/06 13:24:57;;;;;;;1.45;1.33;;;28.50;72.40;;;;;;5011715;28;20227;-66
2022/06/06 13:27:29;;;;;;;1.90;1.50;;;28.50;74.10;;;;;;5013468;28;20253;-67
2022/06/06 13:29:57;;;;;;;1.98;1.17;;;28.50;75.00;;;;;;5010976;28;20242;-65
2022/06/06 13:32:39;;;;;;;3.38;1.30;;;28.50;74.60;;;;;;5012673;28;20686;-67
2022/06/06 13:35:16;;;;;;;2.78;1.40;;;28.60;73.40;;;;;;5012443;28;20206;-66
2022/06/06 13:37:54;;;;;;;1.80;1.33;;;28.30;75.00;;;;;;5011771;28;20207;-64
2022/06/06 13:40:38;;;;;;;3.33;1.85;;;28.10;75.80;;;;;;5011198;28;20226;-66
2022/06/06 13:43:35;;;;;;;3.17;1.45;;;27.50;76.00;;;;;;5011056;28;20245;-67
2022/06/06 13:46:19;;;;;;;4.25;1.30;;;27.00;76.30;;;;;;5010802;28;20257;-68
2022/06/06 13:49:19;;;;;;;2.53;1.35;;;26.70;77.70;;;;;;5009817;28;20226;-67
2022/06/06 13:51:58;;;;;;;5.22;3.20;;;26.30;78.40;;;;;;4981397;28;20210;-66
2022/06/06 13:54:30;;;;;;;7.47;3.58;;;26.00;79.40;;;;;;5010962;28;20226;-66
2022/06/06 13:57:16;;;;;;;36.13;32.58;;;25.60;79.10;;;;;;5009781;28;20626;-66
2022/06/06 14:00:10;;;;;;;2.22;1.50;;;25.40;79.10;;;;;;5007187;28;20223;-69
2022/06/06 14:02:49;;;;;;;1.30;1.20;;;25.20;80.00;;;;;;5009574;28;20667;-68
2022/06/06 14:05:33;;;;;;;3.75;1.52;;;25.20;80.40;;;;;;5010911;28;20256;-68
2022/06/06 14:08:10;;;;;;;1.40;1.20;;;25.20;79.80;;;;;;5010919;28;20245;-67
2022/06/06 14:10:52;;;;;;;1.98;1.27;;;25.10;79.80;;;;;;5009377;28;20289;-61
2022/06/06 14:13:29;;;;;;;3.92;1.48;;;24.90;80.10;;;;;;5011380;28;20215;-64
2022/06/06 14:15:57;;;;;;;1.50;1.23;;;24.90;80.50;;;;;;5010809;28;20691;-65
2022/06/06 14:18:31;;;;;;;1.95;1.00;;;24.80;80.80;;;;;;5010732;28;20238;-63